Time;durP1;ratioP1;P1;durP2;ratioP2;P2;SDS_P1;SDS_P2;PMS_P1;PMS_P2;Temp;Humidity;BMP_temperature;BMP_pressure;BME280_temperature;BME280_humidity;BME280_pressure;Samples;Min_cycle;Max_cycle;Signal;HPM_P1;HPM_P2
2021/04/11 00:00:24;;;;;;;5.07;2.95;;;;;;;9.00;71.80;99848.22;5008908;28;20045;-69
2021/04/11 00:02:49;;;;;;;;;;;;;;;8.81;73.19;99837.91;4992674;28;20057;-69
2021/04/11 00:05:16;;;;;;;4.65;2.72;;;;;;;8.75;71.47;99839.38;4992755;28;19917;-69
2021/04/11 00:07:42;;;;;;;2.47;1.85;;;;;;;8.76;70.74;99827.84;5005694;28;20038;-69
2021/04/11 00:10:10;;;;;;;4.88;3.38;;;;;;;8.78;71.20;99825.06;5002290;28;20042;-69
2021/04/11 00:12:35;;;;;;;6.88;4.45;;;;;;;8.80;71.53;99825.72;4999467;28;20050;-69
2021/04/11 00:15:05;;;;;;;5.88;4.10;;;;;;;8.61;74.03;99826.78;4994143;28;20105;-69
2021/04/11 00:17:31;;;;;;;3.83;2.80;;;;;;;8.54;72.28;99821.31;4990960;28;20053;-69
2021/04/11 00:19:56;;;;;;;4.53;2.97;;;;;;;8.48;73.92;99822.72;4987526;28;20038;-69
2021/04/11 00:22:23;;;;;;;5.93;3.00;;;;;;;8.55;71.68;99817.66;5007098;28;20045;-69
2021/04/11 00:24:49;;;;;;;4.47;2.88;;;;;;;8.50;73.55;99817.31;4993794;28;20089;-69
2021/04/11 00:27:14;;;;;;;5.45;3.33;;;;;;;8.27;73.59;99825.72;5010871;28;20030;-69
2021/04/11 00:29:41;;;;;;;3.15;2.08;;;;;;;8.26;73.17;99824.06;5011912;28;20522;-69
2021/04/11 00:32:08;;;;;;;7.28;4.15;;;;;;;8.13;74.92;99818.38;4989895;28;20368;-70
2021/04/11 00:34:36;;;;;;;5.78;3.20;;;;;;;8.16;73.02;99822.50;5010195;28;20065;-69
2021/04/11 00:37:01;;;;;;;5.88;3.83;;;;;;;8.18;74.73;99810.00;5009944;28;20112;-69
2021/04/11 00:39:28;;;;;;;6.55;3.83;;;;;;;8.20;73.78;99806.25;4992573;28;20036;-69
2021/04/11 00:42:00;;;;;;;7.55;4.30;;;;;;;8.23;73.81;99805.94;5003630;28;20038;-69
2021/04/11 00:44:26;;;;;;;5.28;3.47;;;;;;;8.18;73.78;99800.31;4992931;28;20358;-69
2021/04/11 00:46:56;;;;;;;7.18;4.00;;;;;;;8.22;73.42;99800.81;4998436;28;20042;-69
2021/04/11 00:49:36;;;;;;;4.35;2.90;;;;;;;8.18;73.37;99789.78;4993058;28;20151;-69
2021/04/11 00:52:04;;;;;;;4.53;2.63;;;;;;;8.21;73.09;99791.25;5003853;28;20034;-70
2021/04/11 00:54:30;;;;;;;4.55;2.80;;;;;;;8.25;72.91;99785.53;4989359;28;20042;-69
2021/04/11 00:56:57;;;;;;;3.70;2.00;;;;;;;8.23;72.99;99779.59;4990412;28;20466;-69
2021/04/11 00:59:22;;;;;;;3.58;1.85;;;;;;;8.20;72.85;99776.44;4990381;28;20507;-69
2021/04/11 01:01:51;;;;;;;4.78;2.40;;;;;;;8.21;72.92;99781.56;4990740;28;20096;-69
2021/04/11 01:04:17;;;;;;;3.13;1.80;;;;;;;8.17;72.88;99790.72;4997530;28;20033;-69
2021/04/11 01:06:53;;;;;;;4.10;2.50;;;;;;;8.10;73.33;99792.31;4992589;28;20048;-69
2021/04/11 01:09:29;;;;;;;4.05;2.38;;;;;;;8.14;72.34;99779.69;5008798;28;20217;-69
2021/04/11 01:11:58;;;;;;;3.50;1.80;;;;;;;8.12;72.70;99779.03;4997530;28;20460;-69
2021/04/11 01:14:29;;;;;;;3.72;2.40;;;;;;;8.15;72.54;99779.56;4990037;28;20038;-69
2021/04/11 01:16:55;;;;;;;3.03;2.05;;;;;;;8.14;72.87;99761.25;4992913;28;20036;-69
2021/04/11 01:19:30;;;;;;;2.97;1.70;;;;;;;8.12;73.08;99768.50;4991451;28;20133;-69
2021/04/11 01:22:17;;;;;;;2.63;1.40;;;;;;;8.07;73.52;99769.75;4995667;28;20034;-69
2021/04/11 01:24:46;;;;;;;2.40;1.48;;;;;;;8.11;72.53;99770.31;4982132;28;20038;-69
2021/04/11 01:27:16;;;;;;;5.18;2.38;;;;;;;8.17;72.49;99755.69;4988584;28;20299;-69
2021/04/11 01:29:43;;;;;;;4.47;2.08;;;;;;;8.16;73.35;99754.84;4991737;28;20426;-69
2021/04/11 01:32:10;;;;;;;3.20;1.90;;;;;;;8.12;74.22;99748.25;4991163;28;20026;-70
2021/04/11 01:34:39;;;;;;;4.35;2.72;;;;;;;7.97;76.78;99762.97;4990905;28;20125;-69
2021/04/11 01:37:07;;;;;;;2.80;1.70;;;;;;;8.02;74.71;99748.34;4991625;28;20061;-71
2021/04/11 01:39:37;;;;;;;3.17;2.17;;;;;;;8.19;73.19;99743.19;4994554;28;20045;-69
2021/04/11 01:42:09;;;;;;;2.92;1.90;;;;;;;8.09;74.59;99738.84;5005996;28;20435;-69
2021/04/11 01:44:38;;;;;;;2.20;1.60;;;;;;;8.17;74.08;99740.69;5013116;28;20030;-69
2021/04/11 01:47:05;;;;;;;2.85;1.83;;;;;;;8.19;73.71;99738.75;4994848;28;20053;-69
2021/04/11 01:49:31;;;;;;;2.45;1.35;;;;;;;8.26;72.83;99742.41;5012972;28;20034;-69
2021/04/11 01:52:05;;;;;;;3.80;2.10;;;;;;;8.34;73.03;99735.53;5013186;28;20076;-69
2021/04/11 01:54:35;;;;;;;2.13;1.50;;;;;;;8.39;72.91;99727.97;5012658;28;20038;-69
2021/04/11 01:57:28;;;;;;;2.25;1.15;;;;;;;8.40;72.77;99729.66;4995119;28;20032;-69
2021/04/11 02:00:11;;;;;;;2.92;1.67;;;;;;;8.37;73.43;99722.88;4990144;28;20034;-69
2021/04/11 02:02:36;;;;;;;3.17;1.52;;;;;;;8.37;72.46;99740.50;5012426;28;20113;-69
2021/04/11 02:05:13;;;;;;;2.38;1.67;;;;;;;8.45;72.78;99727.38;5012283;28;20603;-69
2021/04/11 02:07:39;;;;;;;3.88;2.00;;;;;;;8.44;73.13;99744.19;5003972;28;20301;-69
2021/04/11 02:10:07;;;;;;;4.00;2.00;;;;;;;8.32;74.77;99740.97;4994326;28;20046;-69
2021/04/11 02:12:34;;;;;;;3.28;2.10;;;;;;;8.28;74.91;99744.88;5001828;28;20484;-69
2021/04/11 02:14:59;;;;;;;4.28;1.80;;;;;;;8.30;73.69;99743.75;5007669;28;20026;-69
2021/04/11 02:17:24;;;;;;;1.98;1.38;;;;;;;8.36;73.07;99742.28;5002192;28;20042;-69
2021/04/11 02:19:51;;;;;;;1.65;1.00;;;;;;;8.41;72.81;99744.47;4991760;28;20491;-69
2021/04/11 02:22:24;;;;;;;2.50;1.40;;;;;;;8.33;74.21;99742.59;4997328;28;20042;-70
2021/04/11 02:24:50;;;;;;;2.35;1.60;;;;;;;8.37;72.75;99745.78;4998487;28;20438;-69
2021/04/11 02:27:20;;;;;;;1.92;1.42;;;;;;;8.38;72.85;99736.88;4999602;28;20125;-69
2021/04/11 02:29:46;;;;;;;2.28;1.42;;;;;;;8.35;73.80;99739.81;5006996;28;20058;-69
2021/04/11 02:32:12;;;;;;;2.03;1.50;;;;;;;8.38;72.73;99734.22;4991996;28;20120;-69
2021/04/11 02:34:37;;;;;;;2.97;1.80;;;;;;;8.44;72.77;99737.09;5008251;28;20058;-69
2021/04/11 02:37:06;;;;;;;3.72;2.30;;;;;;;8.54;72.68;99731.72;4992391;28;20046;-69
2021/04/11 02:39:36;;;;;;;3.95;2.08;;;;;;;8.62;72.41;99726.47;4997492;28;20038;-69
2021/04/11 02:42:05;;;;;;;3.88;2.10;;;;;;;8.70;72.33;99730.97;5007988;28;20037;-69
2021/04/11 02:44:38;;;;;;;2.33;1.60;;;;;;;8.71;72.10;99727.31;5008464;28;20435;-69
2021/04/11 02:47:05;;;;;;;2.00;1.45;;;;;;;8.77;71.91;99720.59;5000674;28;20042;-69
2021/04/11 02:49:31;;;;;;;2.88;1.60;;;;;;;8.82;71.97;99726.19;5011581;28;20033;-70
2021/04/11 02:52:01;;;;;;;1.70;1.20;;;;;;;8.86;71.82;99730.16;5011674;28;20495;-69
2021/04/11 02:54:28;;;;;;;3.40;2.05;;;;;;;8.95;71.42;99725.75;4990242;28;20033;-69
2021/04/11 02:56:54;;;;;;;3.78;1.73;;;;;;;8.97;72.27;99731.69;4991451;28;20428;-69
2021/04/11 02:59:19;;;;;;;4.03;1.85;;;;;;;8.93;72.94;99728.53;4993416;28;20081;-69
2021/04/11 03:01:49;;;;;;;2.95;1.60;;;;;;;8.97;71.99;99727.25;4992137;28;20034;-69
2021/04/11 03:04:17;;;;;;;3.53;1.80;;;;;;;9.08;71.73;99731.38;5010918;28;20034;-69
2021/04/11 03:06:46;;;;;;;3.40;1.98;;;;;;;9.26;70.63;99732.06;5010662;28;20112;-69
2021/04/11 03:09:21;;;;;;;4.78;2.10;;;;;;;9.45;70.04;99715.09;5002993;28;20103;-70
2021/04/11 03:11:52;;;;;;;3.45;2.22;;;;;;;9.60;68.04;99715.28;5005273;28;20030;-69
2021/04/11 03:14:21;;;;;;;3.30;2.08;;;;;;;9.79;68.32;99722.03;5001184;28;20084;-69
2021/04/11 03:16:47;;;;;;;4.40;1.92;;;;;;;9.97;67.99;99709.47;5004977;28;20038;-69
2021/04/11 03:19:19;;;;;;;4.10;2.42;;;;;;;10.17;66.92;99715.19;4991313;28;20043;-69
2021/04/11 03:21:45;;;;;;;4.45;1.98;;;;;;;10.34;65.11;99723.09;4989992;28;20027;-69
2021/04/11 03:24:10;;;;;;;3.50;2.00;;;;;;;10.49;64.72;99729.34;4991262;28;20045;-69
2021/04/11 03:26:44;;;;;;;4.30;2.25;;;;;;;10.67;64.03;99715.88;4993317;28;20042;-70
2021/04/11 03:29:30;;;;;;;4.95;2.28;;;;;;;10.84;62.98;99714.81;4991672;28;20056;-69
2021/04/11 03:32:04;;;;;;;3.22;2.05;;;;;;;11.00;62.40;99719.19;4993334;28;20038;-70
2021/04/11 03:34:32;;;;;;;5.38;2.22;;;;;;;11.12;62.02;99722.25;4993659;28;20053;-69
2021/04/11 03:37:01;;;;;;;6.38;2.45;;;;;;;11.18;61.42;99731.34;4997531;28;20094;-69
2021/04/11 03:39:29;;;;;;;4.40;2.22;;;;;;;11.22;60.89;99722.03;4992786;28;20049;-69
2021/04/11 03:41:55;;;;;;;4.18;2.40;;;;;;;11.29;61.12;99732.72;5000008;28;20049;-69
2021/04/11 03:44:23;;;;;;;3.97;2.30;;;;;;;11.35;60.83;99735.50;4990883;28;20034;-69
2021/04/11 03:47:09;;;;;;;2.67;1.80;;;;;;;11.34;61.70;99738.31;5003443;28;20124;-69
2021/04/11 03:49:53;;;;;;;3.28;1.83;;;;;;;11.29;61.72;99745.97;5010147;28;20348;-69
2021/04/11 03:52:31;;;;;;;2.92;1.95;;;;;;;11.39;60.88;99735.97;4986500;28;20030;-69
2021/04/11 03:55:03;;;;;;;3.40;2.00;;;;;;;11.42;60.65;99725.03;5005983;28;20088;-69
2021/04/11 03:57:39;;;;;;;2.60;1.70;;;;;;;11.43;60.45;99724.03;4999381;28;20093;-69
2021/04/11 04:00:11;;;;;;;4.85;2.00;;;;;;;11.43;59.94;99737.25;4989956;28;20042;-70
2021/04/11 04:02:40;;;;;;;3.30;2.03;;;;;;;11.44;60.45;99731.81;4986635;28;20031;-69
2021/04/11 04:05:07;;;;;;;3.75;2.10;;;;;;;11.52;60.46;99732.75;4989069;28;20038;-69
2021/04/11 04:07:54;;;;;;;2.72;1.77;;;;;;;11.51;60.51;99723.94;4991919;28;20108;-69
2021/04/11 04:10:23;;;;;;;3.72;2.20;;;;;;;11.54;59.90;99725.44;5009596;28;20498;-69
2021/04/11 04:12:57;;;;;;;3.90;1.90;;;;;;;11.55;60.05;99733.19;4997390;28;20027;-69
2021/04/11 04:15:32;;;;;;;2.53;1.80;;;;;;;11.53;60.08;99726.44;5008719;28;20045;-69
2021/04/11 04:18:19;;;;;;;3.38;1.67;;;;;;;11.48;60.30;99726.97;4995318;28;20038;-69
2021/04/11 04:21:07;;;;;;;2.45;1.40;;;;;;;11.45;60.91;99743.22;5003993;28;20038;-69
2021/04/11 04:23:55;;;;;;;3.78;1.80;;;;;;;11.35;61.47;99743.44;5010458;28;20034;-69
2021/04/11 04:26:45;;;;;;;4.47;2.03;;;;;;;11.36;61.12;99733.69;4991263;28;20452;-69
2021/04/11 04:29:24;;;;;;;2.70;1.70;;;;;;;11.38;60.60;99736.97;5009381;28;20172;-69
2021/04/11 04:32:01;;;;;;;2.88;2.05;;;;;;;11.44;60.47;99733.59;5004658;28;20042;-69
2021/04/11 04:34:35;;;;;;;3.50;1.80;;;;;;;11.42;60.47;99727.69;5008017;28;20282;-69
2021/04/11 04:37:08;;;;;;;3.55;2.00;;;;;;;11.35;59.85;99735.50;4994560;28;20026;-69
2021/04/11 04:40:01;;;;;;;3.67;2.17;;;;;;;11.36;59.54;99729.19;5009859;28;20040;-69
2021/04/11 04:42:51;;;;;;;3.00;2.00;;;;;;;11.39;59.66;99731.53;4990643;28;20034;-69
2021/04/11 04:45:41;;;;;;;3.13;1.90;;;;;;;11.43;59.86;99726.69;4995533;28;20034;-69
2021/04/11 04:48:09;;;;;;;3.30;2.10;;;;;;;11.48;59.76;99733.06;5006455;28;20132;-69
2021/04/11 04:50:42;;;;;;;2.85;1.90;;;;;;;11.53;59.34;99729.09;5006415;28;20061;-69
2021/04/11 04:53:18;;;;;;;3.15;1.90;;;;;;;11.56;59.43;99720.78;4990552;28;20034;-69
2021/04/11 04:55:53;;;;;;;3.53;2.20;;;;;;;11.56;59.58;99726.91;5001671;28;20041;-69
2021/04/11 04:58:26;;;;;;;2.55;1.67;;;;;;;11.60;59.45;99724.72;4991227;28;20379;-69
2021/04/11 05:00:57;;;;;;;5.38;2.30;;;;;;;11.65;59.59;99725.81;4995666;28;20027;-69
2021/04/11 05:03:31;;;;;;;3.28;2.05;;;;;;;11.69;59.30;99721.00;4996796;28;20057;-69
2021/04/11 05:06:06;;;;;;;3.78;1.85;;;;;;;11.71;58.65;99718.19;5008590;28;20026;-69
2021/04/11 05:08:58;;;;;;;3.00;1.80;;;;;;;11.72;58.94;99712.69;5006082;28;20042;-69
2021/04/11 05:11:32;;;;;;;3.92;2.40;;;;;;;11.76;59.27;99710.53;4990600;28;20093;-69
2021/04/11 05:14:07;;;;;;;2.33;1.67;;;;;;;11.73;59.26;99713.50;5002328;28;20422;-69
2021/04/11 05:17:08;;;;;;;4.03;1.90;;;;;;;11.77;59.34;99720.09;5012102;28;20380;-69
2021/04/11 05:19:38;;;;;;;3.55;1.95;;;;;;;11.82;59.55;99712.44;5012985;28;20125;-69
2021/04/11 05:22:16;;;;;;;4.38;1.80;;;;;;;11.91;59.45;99716.69;5012941;28;20038;-69
2021/04/11 05:24:47;;;;;;;2.78;1.50;;;;;;;12.00;59.32;99705.03;4996056;28;20030;-69
2021/04/11 05:27:18;;;;;;;2.60;1.52;;;;;;;12.15;58.93;99701.56;5010558;28;20097;-69
2021/04/11 05:29:52;;;;;;;4.32;1.58;;;;;;;12.42;58.82;99706.22;5000415;28;20499;-69
2021/04/11 05:32:18;;;;;;;2.50;1.60;;;;;;;12.68;58.32;99712.84;4998909;28;20038;-69
2021/04/11 05:34:43;;;;;;;3.83;1.90;;;;;;;12.94;57.59;99710.53;5012903;28;20080;-69
2021/04/11 05:37:26;;;;;;;3.55;1.50;;;;;;;13.22;57.10;99704.47;5006644;28;20403;-70
2021/04/11 05:39:57;;;;;;;5.32;1.80;;;;;;;13.52;55.60;99702.56;4995966;28;20129;-69
2021/04/11 05:42:48;;;;;;;3.08;1.50;;;;;;;13.89;55.33;99705.09;5002333;28;20065;-69
2021/04/11 05:45:23;;;;;;;2.40;1.40;;;;;;;14.15;54.09;99707.09;4999580;28;20088;-69
2021/04/11 05:47:57;;;;;;;2.22;1.40;;;;;;;14.23;53.94;99701.66;4991897;28;20451;-70
2021/04/11 05:50:26;;;;;;;2.10;1.23;;;;;;;14.40;54.48;99707.47;4997829;28;20038;-69
2021/04/11 05:53:02;;;;;;;3.67;1.70;;;;;;;14.45;54.00;99707.69;4993276;28;20388;-69
2021/04/11 05:55:33;;;;;;;3.60;1.65;;;;;;;14.33;53.95;99701.28;4997347;28;20034;-69
2021/04/11 05:58:04;;;;;;;3.33;1.50;;;;;;;14.67;53.20;99711.09;4993353;28;20038;-69
2021/04/11 06:00:36;;;;;;;;;;;;;;;14.90;52.29;99704.59;4994605;28;20046;-70
2021/04/11 06:03:08;;;;;;;3.05;1.48;;;;;;;15.22;51.65;99719.03;4992990;28;20390;-69
2021/04/11 06:06:04;;;;;;;2.42;1.33;;;;;;;15.68;50.21;99718.25;4993679;28;20240;-69
2021/04/11 06:08:36;;;;;;;3.33;1.60;;;;;;;16.27;47.65;99722.75;4993042;28;20295;-71
2021/04/11 06:11:11;;;;;;;3.97;1.60;;;;;;;16.49;48.28;99731.34;5007798;28;20045;-70
2021/04/11 06:13:39;;;;;;;2.90;1.40;;;;;;;16.39;47.68;99741.59;5004017;28;20042;-69
2021/04/11 06:16:16;;;;;;;2.40;1.30;;;;;;;16.45;49.00;99746.13;5011780;28;20038;-70
2021/04/11 06:18:44;;;;;;;3.45;1.70;;;;;;;16.50;47.85;99754.31;5012487;28;20034;-69
2021/04/11 06:21:32;;;;;;;2.85;1.63;;;;;;;16.26;47.95;99753.13;5004075;28;20621;-70
2021/04/11 06:24:06;;;;;;;2.70;1.30;;;;;;;15.98;48.56;99749.88;4993158;28;20038;-69
2021/04/11 06:26:42;;;;;;;3.33;1.42;;;;;;;15.46;49.11;99747.75;4993285;28;20045;-70
2021/04/11 06:29:13;;;;;;;2.92;1.40;;;;;;;15.21;50.19;99749.38;4995255;28;20041;-70
2021/04/11 06:31:53;;;;;;;2.58;1.27;;;;;;;15.13;50.42;99758.34;5012832;28;20046;-70
2021/04/11 06:34:29;;;;;;;3.10;1.33;;;;;;;15.18;50.36;99755.91;5010830;28;20061;-69
2021/04/11 06:37:02;;;;;;;2.78;1.40;;;;;;;15.30;50.91;99761.47;5012849;28;20399;-70
2021/04/11 06:39:32;;;;;;;2.40;1.30;;;;;;;15.80;50.02;99764.66;5003132;28;20074;-69
2021/04/11 06:42:31;;;;;;;3.30;1.40;;;;;;;15.64;48.79;99760.50;4994442;28;20034;-69
2021/04/11 06:45:21;;;;;;;3.70;1.42;;;;;;;15.41;49.92;99747.56;4990888;28;20041;-69
2021/04/11 06:48:11;;;;;;;3.05;1.20;;;;;;;15.32;50.92;99753.28;4994607;28;20042;-70
2021/04/11 06:51:09;;;;;;;3.22;1.58;;;;;;;15.47;50.08;99749.41;5004890;28;20402;-69
2021/04/11 06:54:09;;;;;;;3.03;1.25;;;;;;;15.43;50.09;99750.03;5002183;28;20034;-70
2021/04/11 06:56:47;;;;;;;4.55;1.83;;;;;;;15.48;50.23;99744.91;5000060;28;20053;-69
2021/04/11 06:59:29;;;;;;;2.25;1.10;;;;;;;15.43;50.07;99747.38;4992247;28;20381;-70
2021/04/11 07:02:09;;;;;;;2.72;1.30;;;;;;;15.35;49.69;99743.06;5003762;28;20120;-69
2021/04/11 07:05:01;;;;;;;2.88;1.40;;;;;;;15.31;49.63;99746.31;5011870;28;20402;-69
2021/04/11 07:07:57;;;;;;;4.32;1.60;;;;;;;15.11;50.11;99744.44;5011714;28;20411;-70
2021/04/11 07:10:47;;;;;;;2.53;1.60;;;;;;;15.00;50.19;99729.84;5011097;28;20089;-70
2021/04/11 07:13:16;;;;;;;3.45;1.55;;;;;;;15.02;49.91;99732.31;5001754;28;20499;-69
2021/04/11 07:16:20;;;;;;;2.70;1.30;;;;;;;15.06;50.37;99741.53;5012494;28;20034;-70
2021/04/11 07:19:23;;;;;;;2.58;1.40;;;;;;;15.10;49.84;99741.97;4983615;28;20116;-69
2021/04/11 07:22:13;;;;;;;2.40;1.48;;;;;;;15.00;50.64;99740.50;5005942;28;20038;-69
2021/04/11 07:24:41;;;;;;;3.75;1.50;;;;;;;14.95;50.43;99747.44;4999391;28;20121;-69
2021/04/11 07:27:38;;;;;;;3.70;1.50;;;;;;;14.93;51.00;99757.47;4993215;28;20277;-70
2021/04/11 07:30:11;;;;;;;2.60;1.40;;;;;;;14.89;51.34;99757.03;5004794;28;20038;-69
2021/04/11 07:32:55;;;;;;;3.63;1.45;;;;;;;14.83;51.93;99747.19;4985476;28;20109;-69
2021/04/11 07:35:45;;;;;;;3.92;1.40;;;;;;;14.75;51.52;99750.00;5002691;28;20108;-70
2021/04/11 07:38:35;;;;;;;3.35;1.73;;;;;;;14.90;51.80;99753.38;5009006;28;20100;-71
2021/04/11 07:41:20;;;;;;;2.30;1.27;;;;;;;14.79;51.33;99751.25;5010744;28;20033;-69
2021/04/11 07:44:16;;;;;;;3.03;1.50;;;;;;;14.84;51.00;99759.47;5005457;28;20038;-69
2021/04/11 07:46:58;;;;;;;3.25;1.20;;;;;;;14.74;51.33;99751.03;5002583;28;20042;-69
2021/04/11 07:49:36;;;;;;;3.45;1.70;;;;;;;14.74;51.35;99754.50;5001465;28;20518;-70
2021/04/11 07:52:20;;;;;;;3.72;1.55;;;;;;;14.79;51.12;99751.25;4992292;28;20041;-71
2021/04/11 07:55:06;;;;;;;2.33;1.55;;;;;;;14.78;51.51;99766.41;5009365;28;20038;-69
2021/04/11 07:57:56;;;;;;;2.20;1.42;;;;;;;14.74;51.70;99762.50;5007905;28;20527;-69
2021/04/11 08:00:29;;;;;;;2.45;1.30;;;;;;;14.67;51.99;99764.31;5008652;28;20037;-69
2021/04/11 08:03:13;;;;;;;2.40;1.25;;;;;;;14.72;52.09;99763.72;5004149;28;20525;-69
2021/04/11 08:05:57;;;;;;;2.15;1.40;;;;;;;14.75;52.11;99765.97;4988133;28;20103;-70
2021/04/11 08:09:00;;;;;;;2.72;1.50;;;;;;;14.87;52.04;99767.03;5006682;28;20049;-69
2021/04/11 08:11:34;;;;;;;3.88;1.33;;;;;;;14.94;51.69;99767.91;5008958;28;20093;-69
2021/04/11 08:14:37;;;;;;;3.45;1.20;;;;;;;14.96;52.03;99763.19;4992522;28;20038;-68
2021/04/11 08:17:30;;;;;;;5.65;1.55;;;;;;;15.04;51.08;99768.38;5005916;28;20365;-68
2021/04/11 08:20:19;;;;;;;3.50;1.67;;;;;;;15.14;50.74;99764.50;5004568;28;20049;-70
2021/04/11 08:22:57;;;;;;;2.95;1.65;;;;;;;15.45;49.82;99764.78;5008240;28;20546;-69
2021/04/11 08:25:37;;;;;;;3.28;1.73;;;;;;;15.80;49.65;99770.00;5009181;28;20739;-68
2021/04/11 08:28:18;;;;;;;4.20;1.90;;;;;;;16.44;47.40;99776.47;5007561;28;20050;-69
2021/04/11 08:31:07;;;;;;;2.75;1.27;;;;;;;16.77;48.05;99771.06;5007435;28;20041;-69
2021/04/11 08:33:56;;;;;;;4.25;1.38;;;;;;;17.37;46.97;99767.31;5009208;28;20030;-69
2021/04/11 08:36:55;;;;;;;5.82;1.50;;;;;;;18.21;44.30;99766.09;5003709;28;20044;-68
2021/04/11 08:39:33;;;;;;;3.45;1.52;;;;;;;19.52;41.76;99761.25;5006215;28;20038;-68
2021/04/11 08:42:12;;;;;;;2.30;1.30;;;;;;;20.37;41.11;99760.03;5008238;28;20030;-68
2021/04/11 08:45:08;;;;;;;2.47;1.50;;;;;;;21.10;39.24;99767.75;5001124;28;20045;-68
2021/04/11 08:47:47;;;;;;;1.75;1.10;;;;;;;21.76;37.62;99763.59;5007050;28;20030;-68
2021/04/11 08:50:23;;;;;;;2.00;1.00;;;;;;;22.54;36.78;99754.78;5002167;28;20040;-68
2021/04/11 08:53:29;;;;;;;2.75;1.30;;;;;;;23.34;34.46;99756.00;5009728;28;20038;-68
2021/04/11 08:56:08;;;;;;;4.63;1.40;;;;;;;23.31;33.69;99753.78;4929022;29;20135;-69
2021/04/11 08:58:49;;;;;;;4.53;1.40;;;;;;;23.15;34.07;99763.63;4913321;29;20047;-70
2021/04/11 09:01:37;;;;;;;3.25;1.42;;;;;;;22.99;34.24;99756.44;4983388;28;20056;-68
2021/04/11 09:04:18;;;;;;;3.45;1.40;;;;;;;22.44;35.35;99763.53;5009703;28;20034;-69
2021/04/11 09:07:19;;;;;;;2.40;1.25;;;;;;;21.95;35.29;99760.63;5004629;28;20460;-68
2021/04/11 09:10:01;;;;;;;2.33;1.30;;;;;;;20.96;37.37;99765.34;5006881;28;20034;-68
2021/04/11 09:13:10;;;;;;;2.70;1.30;;;;;;;19.99;38.62;99762.38;4987766;28;20080;-69
2021/04/11 09:15:56;;;;;;;3.15;1.30;;;;;;;19.59;40.09;99760.31;5007970;28;20088;-68
2021/04/11 09:18:44;;;;;;;2.30;1.35;;;;;;;19.67;40.69;99750.06;5007238;28;20038;-69
2021/04/11 09:21:12;;;;;;;3.28;1.33;;;;;;;20.47;37.87;99755.94;4991330;28;20113;-69
2021/04/11 09:23:57;;;;;;;3.50;1.35;;;;;;;20.55;37.39;99756.44;5008776;28;20045;-69
2021/04/11 09:26:38;;;;;;;3.03;1.40;;;;;;;20.38;38.52;99763.56;5007537;28;20034;-69
2021/04/11 09:29:31;;;;;;;2.90;1.45;;;;;;;19.98;38.81;99755.41;4991515;28;20046;-68
2021/04/11 09:32:21;;;;;;;2.45;1.40;;;;;;;20.04;39.26;99757.94;5002307;28;20423;-69
2021/04/11 09:35:08;;;;;;;4.75;1.70;;;;;;;20.77;37.96;99753.94;5000468;28;20038;-68
2021/04/11 09:38:01;;;;;;;2.88;1.42;;;;;;;20.90;37.52;99752.84;4984544;28;20622;-72
2021/04/11 09:41:01;;;;;;;3.03;1.40;;;;;;;21.10;37.30;99765.06;4998717;28;20137;-72
2021/04/11 09:43:51;;;;;;;2.88;1.20;;;;;;;20.84;37.34;99761.06;5009648;28;20034;-72
2021/04/11 09:46:37;;;;;;;4.70;1.60;;;;;;;20.50;37.37;99756.31;4992946;28;20234;-73
2021/04/11 09:49:25;;;;;;;2.50;1.40;;;;;;;20.05;38.28;99756.09;4990591;28;20065;-72
2021/04/11 09:52:22;;;;;;;3.08;1.52;;;;;;;19.70;38.69;99756.88;5004022;28;20458;-72
2021/04/11 09:54:53;;;;;;;4.70;1.60;;;;;;;19.04;40.23;99751.41;5008945;28;20600;-71
2021/04/11 09:57:39;;;;;;;2.13;1.30;;;;;;;18.77;40.82;99758.94;4993287;28;20045;-71
2021/04/11 10:00:23;;;;;;;3.78;1.42;;;;;;;18.46;41.25;99760.69;4991685;28;20136;-71
2021/04/11 10:02:48;;;;;;;3.05;1.45;;;;;;;18.28;41.88;99765.19;5006667;28;20077;-72
2021/04/11 10:05:58;;;;;;;2.13;1.20;;;;;;;18.20;42.06;99763.63;5011828;28;20041;-71
2021/04/11 10:08:38;;;;;;;2.50;1.50;;;;;;;17.88;42.99;99758.38;5002311;28;20072;-71
2021/04/11 10:11:33;;;;;;;3.35;1.52;;;;;;;17.75;43.35;99758.44;5012414;28;20041;-73
2021/04/11 10:14:09;;;;;;;2.58;1.33;;;;;;;17.62;43.86;99757.50;5006350;28;20040;-72
2021/04/11 10:16:58;;;;;;;3.90;1.52;;;;;;;17.59;44.88;99767.78;5011673;28;20122;-71
2021/04/11 10:19:39;;;;;;;2.40;1.40;;;;;;;17.56;44.02;99761.00;4964393;28;20070;-72
2021/04/11 10:22:27;;;;;;;1.88;1.15;;;;;;;17.28;44.89;99765.91;5012218;28;20450;-72
2021/04/11 10:25:30;;;;;;;1.85;1.27;;;;;;;17.17;45.23;99764.75;4994528;28;20030;-75
2021/04/11 10:28:33;;;;;;;2.22;1.20;;;;;;;16.91;45.49;99769.19;4994309;28;20121;-71
2021/04/11 10:31:12;;;;;;;3.75;1.50;;;;;;;16.77;46.63;99755.03;5007301;28;20112;-71
2021/04/11 10:33:52;;;;;;;3.47;1.23;;;;;;;16.74;47.77;99766.16;5001564;28;20037;-72
2021/04/11 10:36:30;;;;;;;2.10;1.35;;;;;;;16.68;47.36;99763.50;4999176;28;20521;-72
2021/04/11 10:39:05;;;;;;;2.63;1.27;;;;;;;16.64;47.17;99764.97;5005569;28;20511;-69
2021/04/11 10:41:45;;;;;;;2.97;1.10;;;;;;;16.55;48.04;99773.19;5003580;28;20037;-71
2021/04/11 10:44:36;;;;;;;2.47;1.30;;;;;;;16.56;48.21;99766.84;5011423;28;20026;-72
2021/04/11 10:47:34;;;;;;;4.00;1.42;;;;;;;16.53;48.29;99761.06;5011569;28;20034;-72
2021/04/11 10:50:35;;;;;;;2.90;1.35;;;;;;;16.44;48.38;99759.66;4989999;28;20034;-71
2021/04/11 10:53:28;;;;;;;1.92;1.10;;;;;;;16.49;48.58;99749.16;4979105;28;20073;-71
2021/04/11 10:56:21;;;;;;;3.10;1.30;;;;;;;16.56;48.77;99757.97;5005827;28;20026;-71
2021/04/11 10:59:15;;;;;;;1.77;1.08;;;;;;;16.73;48.47;99758.34;5005226;28;20495;-72
2021/04/11 11:01:54;;;;;;;3.40;1.27;;;;;;;16.61;49.63;99758.16;5006934;28;20122;-71
2021/04/11 11:04:22;;;;;;;2.00;1.00;;;;;;;16.45;49.50;99767.47;5007888;28;20069;-73
2021/04/11 11:07:20;;;;;;;2.22;1.10;;;;;;;16.51;48.81;99765.78;5009472;28;20038;-72
2021/04/11 11:10:02;;;;;;;2.95;1.10;;;;;;;16.42;49.42;99770.56;5004480;28;20034;-71
2021/04/11 11:12:27;;;;;;;;;;;;;;;16.41;49.15;99768.09;5010219;28;20100;-72
2021/04/11 11:15:23;;;;;;;2.92;1.25;;;;;;;16.20;50.47;99771.81;4992873;28;19913;-72
2021/04/11 11:18:32;;;;;;;2.55;0.93;;;;;;;16.24;49.72;99776.53;4990201;28;20116;-72
2021/04/11 11:21:25;;;;;;;2.55;1.25;;;;;;;16.11;51.80;99773.84;5005636;28;20498;-72
2021/04/11 11:24:21;;;;;;;2.33;1.08;;;;;;;16.09;51.82;99774.09;5010630;28;20034;-72
2021/04/11 11:26:59;;;;;;;1.58;1.00;;;;;;;16.14;51.62;99776.13;4969705;28;20076;-72
2021/04/11 11:29:40;;;;;;;1.52;0.93;;;;;;;16.15;50.99;99764.44;5000886;28;20042;-73
2021/04/11 11:32:33;;;;;;;2.90;1.00;;;;;;;16.25;51.67;99762.16;5003389;28;20411;-73
2021/04/11 11:35:10;;;;;;;2.42;1.20;;;;;;;16.39;50.01;99764.81;5010772;28;20038;-72
2021/04/11 11:38:04;;;;;;;2.88;1.10;;;;;;;16.33;50.89;99761.13;4999159;28;20128;-73
2021/04/11 11:40:29;;;;;;;2.22;1.15;;;;;;;16.37;50.81;99769.53;4991221;28;20073;-73
2021/04/11 11:42:57;;;;;;;2.10;0.93;;;;;;;16.44;52.25;99776.47;5010223;28;20648;-73
2021/04/11 11:45:47;;;;;;;1.85;0.90;;;;;;;16.69;50.26;99779.31;4999802;28;20066;-73
2021/04/11 11:48:30;;;;;;;1.67;1.00;;;;;;;16.81;49.02;99776.84;4991683;28;20031;-73
2021/04/11 11:51:12;;;;;;;1.92;0.90;;;;;;;16.81;51.80;99778.69;5005297;28;20053;-73
2021/04/11 11:53:43;;;;;;;2.17;0.98;;;;;;;16.81;50.61;99786.72;4992578;28;20033;-73
2021/04/11 11:56:38;;;;;;;2.55;0.90;;;;;;;16.89;48.69;99781.13;5001400;28;20037;-73
2021/04/11 11:59:14;;;;;;;1.67;0.90;;;;;;;17.13;47.91;99780.38;4992084;28;20053;-72
2021/04/11 12:01:57;;;;;;;1.88;0.90;;;;;;;17.67;47.50;99770.22;5002428;28;20053;-73
2021/04/11 12:04:54;;;;;;;2.33;1.02;;;;;;;17.84;46.64;99775.88;4991669;28;20045;-72
2021/04/11 12:07:25;;;;;;;2.03;0.90;;;;;;;17.55;46.98;99770.09;5006512;28;20407;-72
2021/04/11 12:10:10;;;;;;;2.13;1.15;;;;;;;17.64;48.44;99776.00;4989104;28;20038;-73
2021/04/11 12:12:49;;;;;;;3.85;1.25;;;;;;;17.87;46.67;99782.63;5001431;28;20187;-73
2021/04/11 12:15:25;;;;;;;1.80;0.90;;;;;;;17.47;51.77;99791.75;4992098;28;20034;-73
2021/04/11 12:18:07;;;;;;;3.40;1.13;;;;;;;17.47;47.06;99782.88;5001474;28;20507;-72
2021/04/11 12:20:45;;;;;;;1.75;0.93;;;;;;;17.63;48.57;99780.50;4989988;28;20395;-72
2021/04/11 12:23:16;;;;;;;1.58;0.80;;;;;;;18.00;46.40;99783.34;5008781;28;20532;-73
2021/04/11 12:25:43;;;;;;;2.08;1.00;;;;;;;17.97;45.47;99785.63;5010015;28;20034;-72
2021/04/11 12:28:15;;;;;;;1.40;0.80;;;;;;;17.81;46.57;99787.81;5003780;28;20525;-72